sensor_id;sensor_type;location;lat;lon;timestamp;pressure;altitude;pressure_sealevel;temperature;humidity
75759;BME280;64371;47.566;19.086;2023-11-21T00:00:30;99970.34;;;6.58;100.00
75759;BME280;64371;47.566;19.086;2023-11-21T00:03:32;99966.69;;;6.49;100.00
75759;BME280;64371;47.566;19.086;2023-11-21T00:06:35;99955.91;;;6.30;100.00
75759;BME280;64371;47.566;19.086;2023-11-21T00:09:37;99944.41;;;6.36;100.00
75759;BME280;64371;47.566;19.086;2023-11-21T00:12:39;99948.59;;;6.37;100.00
75759;BME280;64371;47.566;19.086;2023-11-21T00:15:44;99950.69;;;6.60;100.00
75759;BME280;64371;47.566;19.086;2023-11-21T00:18:46;99957.25;;;6.53;100.00
75759;BME280;64371;47.566;19.086;2023-11-21T00:21:48;99952.78;;;6.38;100.00
75759;BME280;64371;47.566;19.086;2023-11-21T00:24:51;99961.94;;;6.31;100.00
75759;BME280;64371;47.566;19.086;2023-11-21T00:27:53;99959.00;;;6.02;100.00
75759;BME280;64371;47.566;19.086;2023-11-21T00:30:56;99969.16;;;5.93;100.00
75759;BME280;64371;47.566;19.086;2023-11-21T00:33:58;99968.03;;;5.79;100.00
75759;BME280;64371;47.566;19.086;2023-11-21T00:37:00;99957.31;;;5.76;100.00
75759;BME280;64371;47.566;19.086;2023-11-21T00:40:05;99973.78;;;5.71;100.00
75759;BME280;64371;47.566;19.086;2023-11-21T00:43:09;99974.78;;;5.60;100.00
75759;BME280;64371;47.566;19.086;2023-11-21T00:46:11;99981.59;;;5.61;100.00
75759;BME280;64371;47.566;19.086;2023-11-21T00:49:14;99970.88;;;5.68;100.00
75759;BME280;64371;47.566;19.086;2023-11-21T00:52:17;99968.78;;;5.65;100.00
75759;BME280;64371;47.566;19.086;2023-11-21T00:55:20;99969.69;;;5.85;100.00
75759;BME280;64371;47.566;19.086;2023-11-21T00:58:24;99960.81;;;5.96;100.00
75759;BME280;64371;47.566;19.086;2023-11-21T01:01:27;99965.50;;;5.94;100.00
75759;BME280;64371;47.566;19.086;2023-11-21T01:04:32;99966.00;;;5.86;100.00
75759;BME280;64371;47.566;19.086;2023-11-21T01:07:34;99975.94;;;5.84;100.00
75759;BME280;64371;47.566;19.086;2023-11-21T01:10:38;99974.53;;;5.72;100.00
75759;BME280;64371;47.566;19.086;2023-11-21T01:13:41;99964.59;;;5.64;100.00
75759;BME280;64371;47.566;19.086;2023-11-21T01:16:44;99951.03;;;5.77;100.00
75759;BME280;64371;47.566;19.086;2023-11-21T01:19:47;99964.81;;;6.49;100.00
75759;BME280;64371;47.566;19.086;2023-11-21T01:22:49;99968.75;;;6.57;100.00
75759;BME280;64371;47.566;19.086;2023-11-21T01:25:52;99957.78;;;6.65;100.00
75759;BME280;64371;47.566;19.086;2023-11-21T01:28:54;99964.31;;;6.73;100.00
75759;BME280;64371;47.566;19.086;2023-11-21T01:31:57;99960.63;;;6.89;99.38
75759;BME280;64371;47.566;19.086;2023-11-21T01:35:00;99966.13;;;6.57;100.00
75759;BME280;64371;47.566;19.086;2023-11-21T01:38:02;99961.16;;;6.50;100.00
75759;BME280;64371;47.566;19.086;2023-11-21T01:41:06;99938.91;;;6.38;100.00
75759;BME280;64371;47.566;19.086;2023-11-21T01:44:08;99945.97;;;6.27;100.00
75759;BME280;64371;47.566;19.086;2023-11-21T01:47:11;99944.59;;;5.99;100.00
75759;BME280;64371;47.566;19.086;2023-11-21T01:50:18;99945.63;;;5.98;100.00
75759;BME280;64371;47.566;19.086;2023-11-21T01:53:24;99945.09;;;5.91;100.00
75759;BME280;64371;47.566;19.086;2023-11-21T01:56:30;99946.94;;;5.86;100.00
75759;BME280;64371;47.566;19.086;2023-11-21T01:59:35;99931.97;;;5.76;100.00
75759;BME280;64371;47.566;19.086;2023-11-21T02:02:38;99936.41;;;5.81;100.00
75759;BME280;64371;47.566;19.086;2023-11-21T02:05:41;99926.75;;;5.86;100.00
75759;BME280;64371;47.566;19.086;2023-11-21T02:08:43;99940.44;;;6.09;100.00
75759;BME280;64371;47.566;19.086;2023-11-21T02:11:46;99926.25;;;5.89;100.00
75759;BME280;64371;47.566;19.086;2023-11-21T02:14:52;99921.81;;;5.90;100.00
75759;BME280;64371;47.566;19.086;2023-11-21T02:17:54;99916.25;;;5.71;100.00
75759;BME280;64371;47.566;19.086;2023-11-21T02:20:57;99918.03;;;5.56;100.00
75759;BME280;64371;47.566;19.086;2023-11-21T02:23:59;99919.28;;;5.48;100.00
75759;BME280;64371;47.566;19.086;2023-11-21T02:27:02;99913.03;;;5.49;100.00
75759;BME280;64371;47.566;19.086;2023-11-21T02:30:05;99905.47;;;5.58;100.00
75759;BME280;64371;47.566;19.086;2023-11-21T02:33:09;99913.13;;;5.79;100.00
75759;BME280;64371;47.566;19.086;2023-11-21T02:36:12;99910.56;;;5.94;100.00
75759;BME280;64371;47.566;19.086;2023-11-21T02:39:14;99911.41;;;6.10;100.00
75759;BME280;64371;47.566;19.086;2023-11-21T02:42:17;99918.19;;;6.11;100.00
75759;BME280;64371;47.566;19.086;2023-11-21T02:45:20;99912.69;;;6.03;100.00
75759;BME280;64371;47.566;19.086;2023-11-21T02:48:29;99909.78;;;5.99;100.00
75759;BME280;64371;47.566;19.086;2023-11-21T02:51:33;99909.81;;;6.04;100.00
75759;BME280;64371;47.566;19.086;2023-11-21T02:54:35;99915.53;;;5.96;100.00
75759;BME280;64371;47.566;19.086;2023-11-21T02:57:38;99900.66;;;6.12;100.00
75759;BME280;64371;47.566;19.086;2023-11-21T03:00:40;99903.81;;;6.29;100.00
75759;BME280;64371;47.566;19.086;2023-11-21T03:03:44;99899.09;;;6.31;100.00
75759;BME280;64371;47.566;19.086;2023-11-21T03:06:46;99902.00;;;6.39;100.00
75759;BME280;64371;47.566;19.086;2023-11-21T03:09:50;99897.28;;;6.51;100.00
75759;BME280;64371;47.566;19.086;2023-11-21T03:12:52;99886.53;;;6.68;100.00
75759;BME280;64371;47.566;19.086;2023-11-21T03:15:55;99884.44;;;6.75;100.00
75759;BME280;64371;47.566;19.086;2023-11-21T03:18:57;99875.50;;;6.86;99.39
75759;BME280;64371;47.566;19.086;2023-11-21T03:22:00;99874.19;;;6.79;99.82
75759;BME280;64371;47.566;19.086;2023-11-21T03:25:03;99861.91;;;6.69;99.64
75759;BME280;64371;47.566;19.086;2023-11-21T03:28:06;99855.63;;;6.65;100.00
75759;BME280;64371;47.566;19.086;2023-11-21T03:31:10;99867.41;;;6.57;100.00
75759;BME280;64371;47.566;19.086;2023-11-21T03:34:24;99862.97;;;6.48;100.00
75759;BME280;64371;47.566;19.086;2023-11-21T03:37:29;99850.16;;;6.36;100.00
75759;BME280;64371;47.566;19.086;2023-11-21T03:40:32;99854.59;;;6.31;100.00
75759;BME280;64371;47.566;19.086;2023-11-21T03:43:37;99864.56;;;6.24;100.00
75759;BME280;64371;47.566;19.086;2023-11-21T03:46:39;99854.09;;;6.29;100.00
75759;BME280;64371;47.566;19.086;2023-11-21T03:49:42;99854.09;;;6.34;100.00
75759;BME280;64371;47.566;19.086;2023-11-21T03:52:44;99847.28;;;6.03;100.00
75759;BME280;64371;47.566;19.086;2023-11-21T03:55:46;99842.31;;;5.86;100.00
75759;BME280;64371;47.566;19.086;2023-11-21T03:58:49;99855.09;;;5.87;100.00
75759;BME280;64371;47.566;19.086;2023-11-21T04:01:51;99848.50;;;5.65;100.00
75759;BME280;64371;47.566;19.086;2023-11-21T04:04:53;99854.34;;;5.97;100.00
75759;BME280;64371;47.566;19.086;2023-11-21T04:07:56;99857.22;;;6.21;100.00
75759;BME280;64371;47.566;19.086;2023-11-21T04:10:58;99862.72;;;6.14;100.00
75759;BME280;64371;47.566;19.086;2023-11-21T04:14:01;99862.69;;;5.99;100.00
75759;BME280;64371;47.566;19.086;2023-11-21T04:17:03;99872.91;;;5.95;100.00
75759;BME280;64371;47.566;19.086;2023-11-21T04:20:07;99884.16;;;5.86;100.00
75759;BME280;64371;47.566;19.086;2023-11-21T04:23:12;99893.25;;;5.73;100.00
75759;BME280;64371;47.566;19.086;2023-11-21T04:26:15;99904.19;;;5.65;100.00
75759;BME280;64371;47.566;19.086;2023-11-21T04:29:18;99903.69;;;5.73;100.00
75759;BME280;64371;47.566;19.086;2023-11-21T04:32:20;99901.88;;;5.69;100.00
75759;BME280;64371;47.566;19.086;2023-11-21T04:35:23;99902.09;;;5.62;100.00
75759;BME280;64371;47.566;19.086;2023-11-21T04:38:25;99891.09;;;5.60;100.00
75759;BME280;64371;47.566;19.086;2023-11-21T04:41:27;99888.78;;;5.64;100.00
75759;BME280;64371;47.566;19.086;2023-11-21T04:44:30;99886.13;;;5.54;100.00
75759;BME280;64371;47.566;19.086;2023-11-21T04:47:32;99888.69;;;5.44;100.00
75759;BME280;64371;47.566;19.086;2023-11-21T04:50:34;99898.88;;;5.45;100.00
75759;BME280;64371;47.566;19.086;2023-11-21T04:53:37;99907.00;;;5.44;100.00
75759;BME280;64371;47.566;19.086;2023-11-21T04:56:39;99905.41;;;5.43;100.00
75759;BME280;64371;47.566;19.086;2023-11-21T04:59:42;99903.91;;;5.57;100.00
75759;BME280;64371;47.566;19.086;2023-11-21T05:02:45;99917.28;;;5.65;100.00
75759;BME280;64371;47.566;19.086;2023-11-21T05:05:48;99915.72;;;5.79;100.00
75759;BME280;64371;47.566;19.086;2023-11-21T05:08:50;99919.78;;;6.12;100.00
75759;BME280;64371;47.566;19.086;2023-11-21T05:11:52;99928.16;;;6.19;100.00
75759;BME280;64371;47.566;19.086;2023-11-21T05:14:55;99931.31;;;6.26;100.00
75759;BME280;64371;47.566;19.086;2023-11-21T05:17:57;99933.38;;;6.14;100.00
75759;BME280;64371;47.566;19.086;2023-11-21T05:21:02;99938.88;;;6.08;100.00
75759;BME280;64371;47.566;19.086;2023-11-21T05:24:05;99931.56;;;6.20;100.00
75759;BME280;64371;47.566;19.086;2023-11-21T05:27:07;99918.97;;;6.01;100.00
75759;BME280;64371;47.566;19.086;2023-11-21T05:30:12;99915.56;;;6.11;100.00
75759;BME280;64371;47.566;19.086;2023-11-21T05:33:16;99908.25;;;6.03;100.00
75759;BME280;64371;47.566;19.086;2023-11-21T05:36:18;99910.06;;;6.03;100.00
75759;BME280;64371;47.566;19.086;2023-11-21T05:39:21;99912.19;;;6.00;100.00
75759;BME280;64371;47.566;19.086;2023-11-21T05:42:23;99921.06;;;5.99;100.00
75759;BME280;64371;47.566;19.086;2023-11-21T05:45:26;99914.78;;;6.16;100.00
75759;BME280;64371;47.566;19.086;2023-11-21T05:48:28;99900.94;;;6.45;100.00
75759;BME280;64371;47.566;19.086;2023-11-21T05:51:31;99912.22;;;6.66;100.00
75759;BME280;64371;47.566;19.086;2023-11-21T05:54:33;99913.75;;;6.42;100.00
75759;BME280;64371;47.566;19.086;2023-11-21T05:57:36;99925.03;;;6.52;100.00
75759;BME280;64371;47.566;19.086;2023-11-21T06:00:40;99924.25;;;6.67;100.00
75759;BME280;64371;47.566;19.086;2023-11-21T06:03:42;99928.16;;;6.64;100.00
75759;BME280;64371;47.566;19.086;2023-11-21T06:06:45;99935.50;;;6.73;100.00
75759;BME280;64371;47.566;19.086;2023-11-21T06:09:47;99951.75;;;6.85;100.00
75759;BME280;64371;47.566;19.086;2023-11-21T06:12:52;99954.34;;;6.59;100.00
75759;BME280;64371;47.566;19.086;2023-11-21T06:15:55;99963.53;;;6.72;100.00
75759;BME280;64371;47.566;19.086;2023-11-21T06:18:58;99970.34;;;6.53;100.00
75759;BME280;64371;47.566;19.086;2023-11-21T06:22:00;99975.06;;;6.56;100.00
75759;BME280;64371;47.566;19.086;2023-11-21T06:25:03;99981.09;;;6.51;100.00
75759;BME280;64371;47.566;19.086;2023-11-21T06:28:07;99981.84;;;6.57;100.00
75759;BME280;64371;47.566;19.086;2023-11-21T06:31:09;99985.25;;;6.42;100.00
75759;BME280;64371;47.566;19.086;2023-11-21T06:34:12;99994.69;;;6.53;100.00
75759;BME280;64371;47.566;19.086;2023-11-21T06:37:16;99996.25;;;6.64;100.00
75759;BME280;64371;47.566;19.086;2023-11-21T06:40:19;100002.03;;;6.66;100.00
75759;BME280;64371;47.566;19.086;2023-11-21T06:43:22;100007.25;;;6.66;100.00
75759;BME280;64371;47.566;19.086;2023-11-21T06:46:25;100002.28;;;6.65;100.00
75759;BME280;64371;47.566;19.086;2023-11-21T06:49:28;100005.44;;;6.82;100.00
75759;BME280;64371;47.566;19.086;2023-11-21T06:52:30;100011.22;;;6.84;100.00
75759;BME280;64371;47.566;19.086;2023-11-21T06:55:33;100015.13;;;7.02;100.00
75759;BME280;64371;47.566;19.086;2023-11-21T06:58:36;100014.88;;;7.03;100.00
75759;BME280;64371;47.566;19.086;2023-11-21T07:01:38;100014.88;;;7.08;100.00
75759;BME280;64371;47.566;19.086;2023-11-21T07:05:43;100018.56;;;7.02;100.00
75759;BME280;64371;47.566;19.086;2023-11-21T07:08:46;100027.97;;;6.98;100.00
75759;BME280;64371;47.566;19.086;2023-11-21T07:11:49;100021.41;;;7.06;100.00
75759;BME280;64371;47.566;19.086;2023-11-21T07:14:51;100027.72;;;6.95;100.00
75759;BME280;64371;47.566;19.086;2023-11-21T07:17:56;100030.59;;;7.08;100.00
75759;BME280;64371;47.566;19.086;2023-11-21T07:20:59;100033.22;;;6.93;100.00
75759;BME280;64371;47.566;19.086;2023-11-21T07:24:02;100029.56;;;7.14;100.00
75759;BME280;64371;47.566;19.086;2023-11-21T07:27:05;100039.22;;;7.34;98.64
75759;BME280;64371;47.566;19.086;2023-11-21T07:30:08;100032.91;;;7.50;98.39
75759;BME280;64371;47.566;19.086;2023-11-21T07:33:12;100040.25;;;7.48;98.44
75759;BME280;64371;47.566;19.086;2023-11-21T07:36:15;100041.28;;;7.52;98.16
75759;BME280;64371;47.566;19.086;2023-11-21T07:39:19;100041.81;;;7.49;97.55
75759;BME280;64371;47.566;19.086;2023-11-21T07:42:31;100042.38;;;7.41;98.23
75759;BME280;64371;47.566;19.086;2023-11-21T07:45:34;100044.69;;;7.53;98.35
75759;BME280;64371;47.566;19.086;2023-11-21T07:48:45;100042.06;;;7.58;97.91
75759;BME280;64371;47.566;19.086;2023-11-21T07:51:48;100036.06;;;7.47;98.52
75759;BME280;64371;47.566;19.086;2023-11-21T07:54:50;100031.03;;;7.56;97.61
75759;BME280;64371;47.566;19.086;2023-11-21T07:57:59;100042.84;;;7.58;99.08
75759;BME280;64371;47.566;19.086;2023-11-21T08:01:11;100038.88;;;7.71;97.99
75759;BME280;64371;47.566;19.086;2023-11-21T08:04:17;100033.88;;;7.74;98.86
75759;BME280;64371;47.566;19.086;2023-11-21T08:07:19;100035.19;;;7.82;97.81
75759;BME280;64371;47.566;19.086;2023-11-21T08:10:22;100035.06;;;8.07;96.11
75759;BME280;64371;47.566;19.086;2023-11-21T08:13:26;100032.41;;;8.17;95.39
75759;BME280;64371;47.566;19.086;2023-11-21T08:16:29;100027.91;;;8.28;93.51
75759;BME280;64371;47.566;19.086;2023-11-21T08:19:32;100026.84;;;8.24;92.84
75759;BME280;64371;47.566;19.086;2023-11-21T08:22:35;100027.28;;;8.46;91.39
75759;BME280;64371;47.566;19.086;2023-11-21T08:25:38;100021.09;;;8.65;90.03
75759;BME280;64371;47.566;19.086;2023-11-21T08:28:41;100013.63;;;8.83;88.55
75759;BME280;64371;47.566;19.086;2023-11-21T08:31:44;100025.28;;;8.72;88.88
75759;BME280;64371;47.566;19.086;2023-11-21T08:34:49;100022.88;;;8.75;88.85
75759;BME280;64371;47.566;19.086;2023-11-21T08:37:54;100025.03;;;8.68;88.83
75759;BME280;64371;47.566;19.086;2023-11-21T08:40:57;100021.47;;;8.49;89.18
75759;BME280;64371;47.566;19.086;2023-11-21T08:44:25;100017.69;;;8.65;87.87
75759;BME280;64371;47.566;19.086;2023-11-21T08:47:28;100017.72;;;8.60;87.09
75759;BME280;64371;47.566;19.086;2023-11-21T08:50:30;100014.66;;;8.82;87.82
75759;BME280;64371;47.566;19.086;2023-11-21T08:53:32;100016.34;;;9.01;86.49
75759;BME280;64371;47.566;19.086;2023-11-21T08:56:35;100021.47;;;9.16;86.29
75759;BME280;64371;47.566;19.086;2023-11-21T08:59:51;100009.09;;;8.88;87.10
75759;BME280;64371;47.566;19.086;2023-11-21T09:03:02;100020.03;;;8.72;88.22
75759;BME280;64371;47.566;19.086;2023-11-21T09:06:06;100026.56;;;8.74;88.93
75759;BME280;64371;47.566;19.086;2023-11-21T09:09:14;100017.78;;;8.89;88.23
75759;BME280;64371;47.566;19.086;2023-11-21T09:12:18;100019.97;;;9.10;87.95
75759;BME280;64371;47.566;19.086;2023-11-21T09:15:21;100020.34;;;9.27;87.10
75759;BME280;64371;47.566;19.086;2023-11-21T09:18:23;100008.78;;;9.23;86.64
75759;BME280;64371;47.566;19.086;2023-11-21T09:21:26;100015.34;;;9.26;86.96
75759;BME280;64371;47.566;19.086;2023-11-21T09:24:34;100002.19;;;9.26;86.49
75759;BME280;64371;47.566;19.086;2023-11-21T09:27:40;99996.59;;;9.32;86.00
75759;BME280;64371;47.566;19.086;2023-11-21T09:30:43;99995.03;;;9.55;84.12
75759;BME280;64371;47.566;19.086;2023-11-21T09:33:48;99994.25;;;9.55;83.51
75759;BME280;64371;47.566;19.086;2023-11-21T09:36:51;99997.97;;;9.54;83.18
75759;BME280;64371;47.566;19.086;2023-11-21T09:39:57;99994.44;;;9.63;83.40
75759;BME280;64371;47.566;19.086;2023-11-21T09:43:46;99965.31;;;9.55;82.72
75759;BME280;64371;47.566;19.086;2023-11-21T09:46:53;99970.88;;;9.53;82.94
75759;BME280;64371;47.566;19.086;2023-11-21T09:53:42;99976.44;;;10.50;87.87
75759;BME280;64371;47.566;19.086;2023-11-21T09:56:48;99971.09;;;14.68;70.39
75759;BME280;64371;47.566;19.086;2023-11-21T09:59:55;99972.84;;;12.94;66.76
75759;BME280;64371;47.566;19.086;2023-11-21T10:03:13;99977.53;;;11.41;73.10
75759;BME280;64371;47.566;19.086;2023-11-21T10:06:19;99972.22;;;10.49;77.12
75759;BME280;64371;47.566;19.086;2023-11-21T10:09:23;99971.72;;;10.15;79.33
75759;BME280;64371;47.566;19.086;2023-11-21T10:12:29;99967.34;;;10.24;80.07
75759;BME280;64371;47.566;19.086;2023-11-21T10:15:34;99971.19;;;10.13;79.25
75759;BME280;64371;47.566;19.086;2023-11-21T10:18:37;99969.19;;;10.05;79.77
75759;BME280;64371;47.566;19.086;2023-11-21T10:21:46;99961.25;;;9.86;80.47
75759;BME280;64371;47.566;19.086;2023-11-21T10:24:48;99952.22;;;10.11;79.75
75759;BME280;64371;47.566;19.086;2023-11-21T10:27:58;99954.50;;;10.87;75.94
75759;BME280;64371;47.566;19.086;2023-11-21T10:31:06;99953.88;;;10.44;77.34
75759;BME280;64371;47.566;19.086;2023-11-21T10:34:17;99957.00;;;11.24;84.10
75759;BME280;64371;47.566;19.086;2023-11-21T10:37:20;99947.94;;;10.52;77.75
75759;BME280;64371;47.566;19.086;2023-11-21T10:40:22;99946.03;;;10.90;81.97
75759;BME280;64371;47.566;19.086;2023-11-21T10:43:25;99953.53;;;12.05;78.90
75759;BME280;64371;47.566;19.086;2023-11-21T10:46:29;99952.91;;;11.18;75.17
75759;BME280;64371;47.566;19.086;2023-11-21T10:49:32;99951.94;;;11.68;72.32
75759;BME280;64371;47.566;19.086;2023-11-21T10:52:35;99954.25;;;11.02;76.06
75759;BME280;64371;47.566;19.086;2023-11-21T10:55:38;99950.88;;;10.83;76.79
75759;BME280;64371;47.566;19.086;2023-11-21T10:58:41;99955.06;;;10.84;76.79
75759;BME280;64371;47.566;19.086;2023-11-21T11:01:46;99954.91;;;10.61;77.80
75759;BME280;64371;47.566;19.086;2023-11-21T11:04:54;99943.63;;;11.48;81.50
75759;BME280;64371;47.566;19.086;2023-11-21T11:08:11;99944.19;;;11.58;73.63
75759;BME280;64371;47.566;19.086;2023-11-21T11:11:14;99945.16;;;12.70;71.10
75759;BME280;64371;47.566;19.086;2023-11-21T11:14:17;99940.34;;;13.33;75.05
75759;BME280;64371;47.566;19.086;2023-11-21T11:17:25;99940.72;;;13.49;70.11
75759;BME280;64371;47.566;19.086;2023-11-21T11:20:34;99937.44;;;14.97;62.48
75759;BME280;64371;47.566;19.086;2023-11-21T11:23:58;99928.28;;;14.86;66.79
75759;BME280;64371;47.566;19.086;2023-11-21T11:27:13;99932.22;;;13.21;67.07
75759;BME280;64371;47.566;19.086;2023-11-21T11:33:59;99934.13;;;11.06;75.62
75759;BME280;64371;47.566;19.086;2023-11-21T11:37:07;99930.41;;;11.61;76.35
75759;BME280;64371;47.566;19.086;2023-11-21T11:40:11;99926.88;;;11.66;75.60
75759;BME280;64371;47.566;19.086;2023-11-21T11:43:25;99930.03;;;11.41;75.26
75759;BME280;64371;47.566;19.086;2023-11-21T11:46:44;99926.81;;;12.73;73.91
75759;BME280;64371;47.566;19.086;2023-11-21T11:50:10;99922.72;;;12.67;77.21
75759;BME280;64371;47.566;19.086;2023-11-21T11:53:16;99925.22;;;13.90;76.25
75759;BME280;64371;47.566;19.086;2023-11-21T11:56:30;99918.97;;;12.37;70.54
75759;BME280;64371;47.566;19.086;2023-11-21T12:00:08;99915.25;;;11.53;74.44
75759;BME280;64371;47.566;19.086;2023-11-21T12:03:13;99911.41;;;12.44;75.68
75759;BME280;64371;47.566;19.086;2023-11-21T12:06:16;99917.88;;;13.95;76.52
75759;BME280;64371;47.566;19.086;2023-11-21T12:09:26;99914.84;;;16.08;62.41
75759;BME280;64371;47.566;19.086;2023-11-21T12:12:29;99910.72;;;15.11;66.81
75759;BME280;64371;47.566;19.086;2023-11-21T12:15:32;99908.38;;;13.12;69.23
75759;BME280;64371;47.566;19.086;2023-11-21T12:18:34;99905.78;;;12.02;72.79
75759;BME280;64371;47.566;19.086;2023-11-21T12:21:38;99909.06;;;11.85;77.30
75759;BME280;64371;47.566;19.086;2023-11-21T12:24:43;99900.47;;;12.37;71.84
75759;BME280;64371;47.566;19.086;2023-11-21T12:27:51;99907.03;;;13.32;73.29
75759;BME280;64371;47.566;19.086;2023-11-21T12:30:55;99900.84;;;13.45;69.16
75759;BME280;64371;47.566;19.086;2023-11-21T12:34:18;99900.56;;;13.07;69.37
75759;BME280;64371;47.566;19.086;2023-11-21T12:37:29;99889.59;;;12.17;76.14
75759;BME280;64371;47.566;19.086;2023-11-21T12:40:33;99891.81;;;11.38;75.11
75759;BME280;64371;47.566;19.086;2023-11-21T12:43:36;99891.25;;;11.14;76.11
75759;BME280;64371;47.566;19.086;2023-11-21T12:46:42;99890.72;;;11.12;76.47
75759;BME280;64371;47.566;19.086;2023-11-21T12:49:47;99888.22;;;11.07;76.84
75759;BME280;64371;47.566;19.086;2023-11-21T12:52:53;99889.75;;;10.94;76.43
75759;BME280;64371;47.566;19.086;2023-11-21T12:55:56;99898.34;;;10.73;77.01
75759;BME280;64371;47.566;19.086;2023-11-21T12:59:03;99886.59;;;10.65;77.92
75759;BME280;64371;47.566;19.086;2023-11-21T13:02:07;99890.13;;;10.74;77.13
75759;BME280;64371;47.566;19.086;2023-11-21T13:05:11;99903.19;;;10.65;78.37
75759;BME280;64371;47.566;19.086;2023-11-21T13:08:25;99898.50;;;10.62;77.81
75759;BME280;64371;47.566;19.086;2023-11-21T13:11:28;99909.16;;;10.71;78.03
75759;BME280;64371;47.566;19.086;2023-11-21T13:14:34;99907.47;;;10.61;79.21
75759;BME280;64371;47.566;19.086;2023-11-21T13:17:36;99898.25;;;10.45;78.91
75759;BME280;64371;47.566;19.086;2023-11-21T13:20:40;99899.38;;;10.39;79.48
75759;BME280;64371;47.566;19.086;2023-11-21T13:23:43;99894.84;;;10.45;78.82
75759;BME280;64371;47.566;19.086;2023-11-21T13:26:51;99900.34;;;10.30;80.71
75759;BME280;64371;47.566;19.086;2023-11-21T13:30:02;99910.25;;;10.19;80.99
75759;BME280;64371;47.566;19.086;2023-11-21T13:33:09;99890.25;;;9.99;80.94
75759;BME280;64371;47.566;19.086;2023-11-21T13:36:14;99896.84;;;9.97;82.81
75759;BME280;64371;47.566;19.086;2023-11-21T13:39:18;99897.59;;;10.02;81.42
75759;BME280;64371;47.566;19.086;2023-11-21T13:42:23;99903.53;;;9.89;82.85
75759;BME280;64371;47.566;19.086;2023-11-21T13:45:28;99908.09;;;9.84;82.78
75759;BME280;64371;47.566;19.086;2023-11-21T13:48:33;99908.59;;;9.86;83.04
75759;BME280;64371;47.566;19.086;2023-11-21T13:51:47;99905.94;;;9.86;82.42
75759;BME280;64371;47.566;19.086;2023-11-21T13:54:57;99908.88;;;9.84;81.15
75759;BME280;64371;47.566;19.086;2023-11-21T13:58:01;99914.69;;;9.81;81.41
75759;BME280;64371;47.566;19.086;2023-11-21T14:01:11;99914.06;;;9.71;82.59
75759;BME280;64371;47.566;19.086;2023-11-21T14:04:32;99922.03;;;9.66;81.96
75759;BME280;64371;47.566;19.086;2023-11-21T14:07:36;99923.16;;;9.60;83.15
75759;BME280;64371;47.566;19.086;2023-11-21T14:10:38;99926.34;;;9.57;83.23
75759;BME280;64371;47.566;19.086;2023-11-21T14:13:48;99926.47;;;9.47;83.68
75759;BME280;64371;47.566;19.086;2023-11-21T14:16:52;99930.00;;;9.37;84.87
75759;BME280;64371;47.566;19.086;2023-11-21T14:19:54;99936.38;;;9.31;86.65
75759;BME280;64371;47.566;19.086;2023-11-21T14:22:58;99939.13;;;9.21;89.20
75759;BME280;64371;47.566;19.086;2023-11-21T14:26:01;99937.44;;;9.06;90.10
75759;BME280;64371;47.566;19.086;2023-11-21T14:29:03;99944.13;;;8.94;92.66
75759;BME280;64371;47.566;19.086;2023-11-21T14:32:07;99945.28;;;8.83;93.21
75759;BME280;64371;47.566;19.086;2023-11-21T14:35:10;99948.97;;;8.82;94.05
75759;BME280;64371;47.566;19.086;2023-11-21T14:38:13;99943.56;;;8.68;94.82
75759;BME280;64371;47.566;19.086;2023-11-21T14:41:17;99947.34;;;8.57;96.17
75759;BME280;64371;47.566;19.086;2023-11-21T14:44:19;99942.72;;;8.44;97.51
75759;BME280;64371;47.566;19.086;2023-11-21T14:47:22;99942.50;;;8.40;98.19
75759;BME280;64371;47.566;19.086;2023-11-21T14:50:29;99945.94;;;8.31;99.30
75759;BME280;64371;47.566;19.086;2023-11-21T14:53:41;99951.22;;;8.26;99.79
75759;BME280;64371;47.566;19.086;2023-11-21T14:56:55;99945.78;;;8.12;100.00
75759;BME280;64371;47.566;19.086;2023-11-21T14:59:58;99952.88;;;8.07;100.00
75759;BME280;64371;47.566;19.086;2023-11-21T15:03:01;99941.16;;;7.94;100.00
75759;BME280;64371;47.566;19.086;2023-11-21T15:06:05;99947.72;;;7.96;100.00
75759;BME280;64371;47.566;19.086;2023-11-21T15:09:21;99940.94;;;7.85;100.00
75759;BME280;64371;47.566;19.086;2023-11-21T15:12:36;99944.94;;;7.73;100.00
75759;BME280;64371;47.566;19.086;2023-11-21T15:15:42;99950.25;;;7.58;100.00
75759;BME280;64371;47.566;19.086;2023-11-21T15:18:44;99945.06;;;7.38;100.00
75759;BME280;64371;47.566;19.086;2023-11-21T15:21:47;99940.63;;;7.33;100.00
75759;BME280;64371;47.566;19.086;2023-11-21T15:24:49;99951.16;;;7.23;100.00
75759;BME280;64371;47.566;19.086;2023-11-21T15:27:52;99949.03;;;7.30;100.00
75759;BME280;64371;47.566;19.086;2023-11-21T15:30:54;99959.03;;;7.08;100.00
75759;BME280;64371;47.566;19.086;2023-11-21T15:33:56;99955.09;;;7.20;100.00
75759;BME280;64371;47.566;19.086;2023-11-21T15:37:02;99954.84;;;7.17;100.00
75759;BME280;64371;47.566;19.086;2023-11-21T15:40:05;99956.19;;;6.99;100.00
75759;BME280;64371;47.566;19.086;2023-11-21T15:43:10;99958.78;;;7.04;100.00
75759;BME280;64371;47.566;19.086;2023-11-21T15:46:13;99962.72;;;7.02;100.00
75759;BME280;64371;47.566;19.086;2023-11-21T15:49:16;99962.19;;;7.05;100.00
75759;BME280;64371;47.566;19.086;2023-11-21T15:52:21;99957.50;;;6.92;100.00
75759;BME280;64371;47.566;19.086;2023-11-21T15:55:24;99948.34;;;6.79;100.00
75759;BME280;64371;47.566;19.086;2023-11-21T15:58:27;99955.66;;;6.77;100.00
75759;BME280;64371;47.566;19.086;2023-11-21T16:01:31;99950.44;;;6.77;100.00
75759;BME280;64371;47.566;19.086;2023-11-21T16:04:34;99949.63;;;6.66;100.00
75759;BME280;64371;47.566;19.086;2023-11-21T16:07:41;99948.88;;;6.61;100.00
75759;BME280;64371;47.566;19.086;2023-11-21T16:10:44;99956.72;;;6.46;100.00
75759;BME280;64371;47.566;19.086;2023-11-21T16:13:46;99948.59;;;6.42;100.00